Country
Station

 

Weather  for  Pine Ridge, Pine Ridge Airport  -  United States    United States

  
22 °C (72 °F)
    
 
 

Current METAR for Pine Ridge, Pine Ridge Airport is :

KIEN 230252Z AUTO 13014G23KT 10SM CLR 22/17 A2989 RMK AO2 SLP091 T02220167 50007

 

This is a report for Pine Ridge, Pine Ridge Airport - United States.
 
The report was made 27 minutes ago, at 02:52 UTC .
The wind was blowing at a speed of 7.2 meters per second (16.1 miles per hour) with gusts up to 11.8 meters per second (26.5 miles per hour) from southeast (130°).
 
The temperature was 22 °C (72 °F), with a dew-point at 17 °C (63 °F).
The temperature felt like 23 °C (74 °F).
 
The atmospheric pressure was 1012 hPa (29.89 inHg).
The relative humidity was 73.3%.
 
The sky was clear.
 
The overall visibility was 16.1 kilometers (10.0 miles).
 

 
 
 
 

Country :   A   B   C   D   E   F   G   H   I   J   K   L   M   N   O   P   Q   R   S   T   U   V   W   Y   Z

 

Site Info  |  Disclaimer  |  Credits  |  Privacy
Contact us  |  Add to favorites
© 2013-2019 METARs - All rights reserved